createdAt,value
2019-05-18T10:59:03.684Z,65.10
2019-05-18T15:48:56.443Z,36.90
2019-05-18T15:53:01.596Z,37.90
2019-05-18T15:57:08.266Z,39.70
2019-05-18T16:01:14.346Z,41.40
2019-05-18T16:05:20.433Z,45.30
2019-05-18T16:09:26.480Z,46.90
2019-05-18T16:13:33.824Z,44.90
2019-05-18T16:17:40.407Z,43.00
2019-05-18T16:21:47.808Z,42.00
2019-05-18T16:25:53.445Z,44.90
2019-05-18T16:30:01.904Z,48.70
2019-05-18T16:34:08.134Z,49.30
2019-05-18T16:38:13.645Z,51.20
2019-05-18T16:42:18.612Z,53.10
2019-05-18T16:46:23.601Z,52.20
2019-05-18T16:50:28.714Z,54.00
2019-05-18T16:54:33.816Z,52.80
2019-05-18T16:58:39.031Z,56.10
2019-05-18T17:02:46.209Z,53.50
2019-05-18T17:06:51.383Z,57.10
2019-05-18T17:10:56.470Z,58.50
2019-05-18T17:15:01.576Z,59.60
2019-05-18T17:19:06.541Z,60.50
2019-05-18T17:23:11.568Z,62.30
2019-05-18T17:27:16.528Z,63.20
2019-05-18T17:31:21.626Z,65.20
2019-05-18T17:35:26.895Z,67.00
2019-05-18T17:39:31.868Z,68.00
2019-05-18T17:43:36.915Z,69.60
2019-05-18T17:47:41.875Z,71.40
2019-05-18T17:51:46.956Z,73.00
2019-05-18T17:55:52.113Z,73.70
2019-05-18T17:59:57.033Z,74.40
2019-05-18T18:04:02.071Z,75.40
2019-05-18T18:08:07.039Z,76.20
2019-05-18T18:12:12.043Z,76.90
2019-05-18T18:16:16.970Z,77.50
2019-05-18T18:20:22.121Z,76.80
2019-05-18T18:24:27.176Z,78.00
2019-05-18T18:28:32.216Z,79.00
2019-05-18T18:32:37.156Z,79.50
2019-05-18T18:36:42.419Z,80.20
2019-05-18T18:40:47.370Z,80.60
2019-05-18T18:44:52.303Z,81.00
2019-05-18T18:48:57.717Z,81.30
2019-05-18T18:53:03.403Z,81.70
2019-05-18T18:57:13.244Z,82.20
2019-05-18T19:01:19.231Z,82.50
2019-05-18T19:05:24.798Z,83.40
2019-05-18T19:09:29.895Z,84.10
2019-05-18T19:13:35.304Z,84.20
2019-05-18T19:17:40.946Z,84.60
2019-05-18T19:21:46.943Z,86.10
2019-05-18T19:25:52.400Z,86.10
2019-05-18T19:29:58.357Z,87.00
2019-05-18T19:34:03.656Z,89.10
2019-05-18T19:38:08.728Z,89.70
2019-05-18T19:42:14.524Z,90.20
2019-05-18T19:46:19.434Z,90.70
2019-05-18T19:50:24.811Z,90.80
2019-05-18T19:54:30.122Z,90.80
2019-05-18T19:58:35.174Z,91.20
2019-05-18T20:02:42.962Z,91.90
2019-05-18T20:06:54.652Z,92.10
2019-05-18T20:11:04.916Z,92.10
2019-05-18T20:15:15.305Z,92.20
2019-05-18T20:19:20.559Z,92.70
2019-05-18T20:23:25.584Z,93.30
2019-05-18T20:27:31.264Z,94.30
2019-05-18T20:31:36.198Z,95.10
2019-05-18T20:35:41.427Z,95.40
2019-05-18T20:39:46.799Z,96.10
2019-05-18T20:43:53.180Z,96.60
2019-05-18T20:47:59.250Z,96.80
2019-05-18T20:52:08.381Z,97.40
2019-05-18T20:56:16.019Z,98.70
2019-05-18T21:00:23.447Z,98.80
2019-05-18T21:04:29.545Z,99.10
2019-05-18T21:08:35.289Z,98.90
2019-05-18T21:12:41.598Z,99.60
2019-05-18T21:16:48.209Z,99.90
2019-05-18T21:20:53.245Z,99.90
2019-05-18T21:24:58.301Z,99.90
2019-05-18T21:29:03.212Z,99.90
2019-05-18T21:33:09.314Z,99.90
2019-05-18T21:37:14.241Z,99.90
2019-05-18T21:41:19.297Z,99.90
2019-05-18T21:45:24.228Z,99.90
2019-05-18T21:49:29.168Z,99.90
2019-05-18T21:53:34.261Z,99.90
2019-05-18T21:57:39.215Z,99.90
2019-05-18T22:01:44.331Z,99.90
2019-05-18T22:05:49.455Z,99.90
2019-05-18T22:09:54.522Z,99.90
2019-05-18T22:13:59.522Z,99.90
2019-05-18T22:18:04.701Z,99.90
2019-05-18T22:22:09.640Z,99.90
2019-05-18T22:26:14.780Z,99.90
2019-05-18T22:30:19.690Z,99.90
2019-05-18T22:34:24.589Z,99.90
2019-05-18T22:38:29.509Z,99.90
2019-05-18T22:42:34.422Z,99.90
2019-05-18T22:46:39.443Z,99.90
2019-05-18T22:50:44.380Z,99.90
2019-05-18T22:54:49.499Z,99.90
2019-05-18T22:58:54.496Z,99.90
2019-05-18T23:02:59.470Z,99.90
2019-05-18T23:07:04.535Z,99.90
2019-05-18T23:11:09.555Z,99.90
2019-05-18T23:15:14.683Z,99.90
2019-05-18T23:19:19.672Z,99.90
2019-05-18T23:23:24.614Z,99.90
2019-05-18T23:27:29.567Z,99.90
2019-05-18T23:31:34.641Z,99.90
2019-05-18T23:35:39.684Z,99.90
2019-05-18T23:39:44.826Z,99.90
2019-05-18T23:43:49.899Z,99.90
2019-05-18T23:47:54.994Z,99.90
2019-05-18T23:51:59.943Z,99.90
2019-05-18T23:56:04.929Z,99.90
